Skip Navigation Links
NOAA logo - Click to go to the NOAA homepage
NOAA's National Weather Service
Alaska Aviation Weather Unit
  NWS logo - Click to go to the NWS homepage
Left Navbar Graphic     21 AKDT = 05 GMT

   
NOAA is celebrating 200 years of science, service, and stewardship. Visit the NOAA 200th celebration Web site to learn more.
USA.gov is the U.S. Government's official Web portal to all Federal, state and local government Web resources and services.
Facebook
NWS on Facebook

AAWU Home :: Display TAF Add Bookmark
SPECI PAWI 262317Z AUTO 09016KT 2 1/2SM UP OVC016 M13/M16 A3004
 RMK VIS 1 3/4V5 UPB17SNB03E17 P0000 T11331161 TSNO VIA
 AUTODIAL=

SPECI PAWI 262325Z AUTO 08017KT 5SM HZ OVC017 M13/M16 A3004 RMK
 UPB17E18SNB03E17B18E23 P0000 T11331161 TSNO VIA AUTODIAL=

SPECI PAWI 262351Z AUTO 09017KT 2 1/2SM -SN BR OVC017 M13/M16
 A3003 RMK UPB17E18SNB03E17B18E23B45 P0000 TSNO VIA AUTODIAL=

METAR PAWI 262353Z AUTO 09019KT 2 1/2SM -SN OVC017 M13/M16 A3003 RMK VIS
     1 1/2V4 UPB17E18SNB03E17B18E23B45 SLP171 P0000 60000
     T11331161 11133 21150 58004 TSNO VIA AUTODIAL=

SPECI PAWI 270006Z AUTO 08017KT 5SM BR OVC017 M14/M16 A3003 RMK SNE2355
     P0000 T11391161 TSNO VIA AUTODIAL=

SPECI PAWI 270044Z AUTO 09016KT 1 3/4SM -SN BR OVC017 M13/M16 A3003 RMK
     UPB38E40SNE2355B40 P0000 T11331156 TSNO VIA AUTODIAL=

SPECI PAWI 270051Z AUTO 08016KT 2 1/2SM -SN OVC017 M13/M16 A3002 RMK
     UPB38E40SNE2355B40 P0000 TSNO VIA AUTODIAL=

METAR PAWI 270053Z AUTO 08016KT 3SM -SN OVC017 M13/M16 A3002 RMK
     UPB38E40SNE2355B40 SLP168 P0000 T11331161 TSNO VIA
     AUTODIAL=

SPECI PAWI 270142Z AUTO 08016KT 8SM FEW016 M13/M16 A3002 RMK
     UPB16E25SNE0056 P0000 T11331161 TSNO VIA AUTODIAL=

METAR PAWI 270153Z AUTO 09015KT 3SM -SN SCT016 M13/M16 A3002 RMK
     UPB16E25SNE0056B53 SLP168 P0000 T11331161 TSNO VIA
     AUTODIAL=

SPECI PAWI 270202Z AUTO 08015KT 4SM -SN BKN016 M13/M16 A3002 RMK
 P0000 T11331161 TSNO VIA AUTODIAL=

METAR PAWI 270253Z AUTO 09018KT 7SM OVC016 M13/M16 A3002 RMK SNE04
     SLP168 P0000 60000 T11331161 55003 TSNO VIA AUTODIAL=

SPECI PAWI 270346Z AUTO 09018KT 2SM -SN BR BKN016 M14/M16 A3002
 RMK SNB38 P0000 T11441161 TSNO VIA AUTODIAL=

SPECI PAWI 270351Z AUTO 08016KT 5SM HZ OVC016 M14/M17 A3002 RMK
 SNB38E50 P0000 TSNO VIA AUTODIAL=

METAR PAWI 270353Z AUTO 08016KT 6SM HZ OVC016 M14/M17 A3002 RMK SNB38E50
     SLP167 P0000 T11391167 TSNO VIA AUTODIAL=


NOAA's National Weather Service
Alaska Aviation Weather Unit
6930 Sand Lake Road
Anchorage, AK 99502-1845
Disclaimer
Credits
Glossary
Privacy Policy
About Us
Career Opportunities
Contact AAWU Internet Services Site last modified: April, 17th 2012